Flight Track Log - Related Links

Times and Time Zones

All times are in EDT time to prevent confusion due to time zone crossing. See the N147SW flight status page for this flight to view local times or setup timezone preferences in your user account.

Time Position Orientation Groundspeed Altitude Reporting Facility
EDT Latitude Longitude Course Direction KTS MPH feet Rate Location/Type
Sun 10:29:30 AM 24.7039 -81.7528 17° North 275 316 7,500  Level Miami Center
Sun 10:30:30 AM 24.7775 -81.7353 12° North 267 307 10,800 2,750 Climbing Miami Center
Sun 10:31:30 AM 24.8617 -81.7156 12° North 337 388 13,000 2,300 Climbing Miami Center
Sun 10:32:30 AM 24.9525 -81.6850 17° North 331 381 15,400 2,600 Climbing Miami Center
Sun 10:33:00 AM 25.2096 -81.5857 17° North  Level FlightAware Approximate
Sun 10:33:30 AM 25.0517 -81.6567 15° North 336 387 18,200  Level Miami Center
Sun 10:34:30 AM 25.1486 -81.6261 16° North 344 396 20,500 1,400 Climbing Miami Center
Sun 10:35:30 AM 25.2478 -81.5956 16° North 351 404 21,000 250 Climbing Miami Center
Sun 10:36:30 AM 25.3617 -81.5586 16° North 384 442 21,000  Level Miami Center
Sun 10:37:30 AM 25.4789 -81.5494 North 418 481 21,000 -250 Level Miami Center
Sun 10:38:30 AM 25.5447 -81.6439 308° West 375 432 20,500 -500 Descending Miami Center
Sun 10:39:30 AM 25.5950 -81.7681 294° West 387 445 20,000 -250 Descending Miami Center
Sun 10:40:30 AM 25.6492 -81.8922 296° West 407 468 20,000  Level Miami Center
Sun 10:41:30 AM 25.6956 -82.0025 295° West 416 479 20,000  Level Miami Center
Sun 10:42:30 AM 25.7758 -82.0936 314° West 416 479 20,000  Level Miami Center
Sun 10:43:30 AM 25.8864 -82.1561 333° Northwest 410 472 20,000  Level Miami Center
Sun 10:44:30 AM 26.0178 -82.2172 337° Northwest 439 505 20,000  Level Miami Center
Sun 10:45:30 AM 26.1058 -82.2653 334° Northwest 444 511 20,000  Level Miami Center
Sun 10:46:30 AM 26.2347 -82.3289 336° Northwest 444 511 20,000  Level Miami Center
Sun 10:47:30 AM 26.3517 -82.3875 336° Northwest 456 525 20,000  Level Miami Center
Sun 10:48:30 AM 26.4664 -82.4417 337° Northwest 456 525 20,000  Level Miami Center
Sun 10:49:30 AM 26.5853 -82.5008 336° Northwest 456 525 20,000 -300 Level Miami Center
Sun 10:50:30 AM 26.7117 -82.5253 350° North 456 525 19,400 -1,450 Descending Miami Center
Sun 10:51:30 AM 26.8506 -82.5439 353° North 456 525 17,100 -2,050 Descending Miami Center
Sun 10:52:30 AM 26.9606 -82.5608 352° North 445 512 15,300 -1,850 Descending Miami Center
Sun 10:53:30 AM 27.0789 -82.5758 354° North 439 505 13,400 -1,900 Descending Miami Center
Sun 10:54:30 AM 27.1931 -82.5908 353° North 425 489 11,500 -1,800 Descending Miami Center
Sun 10:55:30 AM 27.2969 -82.6053 353° North 398 458 9,800 -1,450 Descending Miami Center
Sun 10:56:30 AM 27.3858 -82.6261 348° North 361 415 8,600 -1,650 Descending Miami Center
Sun 10:57:30 AM 27.4619 -82.6558 341° North 312 359 6,500 -1,950 Descending Miami Center
Sun 10:58:30 AM 27.5336 -82.6850 340° North 285 328 4,700 -1,250 Descending Miami Center
Sun 10:59:30 AM 27.6097 -82.7122 342° North 279 321 4,000 -350 Descending Miami Center
Sun 11:00:30 AM 27.6861 -82.7328 347° North 279 321 4,000 -50 Level Miami Center
Sun 11:01:30 AM 27.7628 -82.7483 350° North 279 321 3,900 -766 Descending Miami Center
Sun 11:02:51 AM 27.8667 -82.7500 359° North 253 291 2,200 -1,021 Descending Tampa TRACON
Sun 11:03:51 AM 27.9167 -82.7333 16° North 186 214 1,500 -850 Descending Tampa TRACON
Sun 11:04:51 AM 27.9333 -82.7000 60° Northeast 144 166 500 -1,000 Descending Tampa TRACON
Sun 11:06:00 AM 27.9100 -82.6875 111° Southeast  Level Estimated
Sun 11:13:00 AM 27.9100 -82.6875 111° Southeast  Level Estimated
Sun 11:14:00 AM 27.9100 -82.6875 111° Southeast  Level Estimated

Login

Don't have an account? Register now (free) for customized features, flight alerts, and more!